Sun Prairie, WI (53590)

4:56 PM CDT on April 19, 2015 (GMT -0500)
Charlotte's Walk | | Change Station
CLOSE
Current Station
Personal Weather Station
Location: Sun Prairie, WI
Elevation: 961 ft
Nearby Weather Stations

Elev 961 ft 43.19 °N, 89.27 °W | Updated 1 minute ago

Mostly Cloudy
Mostly Cloudy
67.9 °F
Feels Like 67.9 °F
N
7.0
Wind Variable Wind from SSE

Today
High -- | Low -- °F
--% Chance of Precip.
Yesterday
High -- | Low -- °F
Precip. -- in
6:08 AM 7:44 PM
New Moon, 2% visible
Pressure 29.54 in
Visibility 10.0 miles
Clouds Scattered Clouds 8500 ft
Overcast 24000 ft
Dew Point 13 °F
Humidity 12%
Rainfall 0.00 in
Snow Depth Not available.
UV 2 out of 12
Pollen 4.90 out of 12
Air Quality Not available.
Flu Activity Local Activity
METAR KMSN 192053Z 11013KT 10SM SCT085 OVC240 22/04 A2954 RMK AO2 SLP001 T02170044 56042

More Conditions Fewer Conditions

Pressure 29.54 in
Visibility 10.0 miles
Clouds Scattered Clouds 8500 ft
Overcast 24000 ft
Dew Point 13 °F
Humidity 12%
Rainfall 0.00 in
Snow Depth Not available.
UV 2 out of 12
Pollen 4.90 out of 12
Air Quality Not available.
Flu Activity Local Activity
METAR KMSN 192053Z 11013KT 10SM SCT085 OVC240 22/04 A2954 RMK AO2 SLP001 T02170044 56042

More Conditions Fewer Conditions

10-Day Weather Forecast

Almanac

Astronomy

Apr. 19, 2015 Rise Set
Actual Time
Civil Twilight
Nautical Twilight
Astronomical Twilight
Moon
Length of Visible Light
Length of Day
Tomorrow will be .
, % of the Moon is Illuminated

Today's Extremes

State Highs State Lows

Community

WunderPhotos

Upload Photos

1,814,994 photos uploaded!

WunderBlogs® & News

Nearby

Air Quality

  Air Quality AQ Index Pollutant
Not available.

Snow Depth

Station Depth Elevation

Earthquake Activity

City Distance Mag. Time & Date
Minimum magnitude displayed is 2.5.

Coastal Water Temperatures

Place Temperature

Stations

Nearby Weather Stations

Station Location Temp. Windchill Dew Point Humidity Wind Precip. Elev Updated Type